Pleasant Mills, Indiana
Current Conditions -  °F | °C
As of 2:54 AM on Tuesday 21 Oct 2014 (Local Time) from KFWA Reporting Station
Few Clouds Few Clouds  
Wind Chill: 44°   Ceiling: Unl
Heat Index: 47°   Visibility: 10mi
Dew Point: 41°   Wind: 6mph
Humidity: 80%   Direction: 280°W
Pressure: 29.95"   Gusts: NA
Location:  40.78°N, 84.84°W
Report Text: KFWA 210654Z 28005KT 10SM FEW050 FEW065 08/05 A2995 RMK AO2 SLP142 T00830050
Loading
Personal Weather Stations






























Interactive Weather Map
Tropical Storm Tracking
New forecast layout! Learn more

10-Day Weather Forecast

Advertisements
Track Severe Weather on mobile